Time;durP1;ratioP1;P1;durP2;ratioP2;P2;SDS_P1;SDS_P2;PMS_P1;PMS_P2;Temp;Humidity;BMP_temperature;BMP_pressure;BME280_temperature;BME280_humidity;BME280_pressure;Samples;Min_cycle;Max_cycle;Signal;HPM_P1;HPM_P2
2022/08/13 00:01:36;;;;;;;18.30;14.63;;;;;;;14.72;100.00;98185.09;1725026;81;21042;-85
2022/08/13 00:04:01;;;;;;;19.23;13.40;;;;;;;14.71;100.00;98180.75;1712609;83;20993;-86
2022/08/13 00:09:08;;;;;;;17.10;14.45;;;;;;;14.66;100.00;98183.56;1693043;84;21035;-86
2022/08/13 00:14:22;;;;;;;18.95;14.33;;;;;;;14.56;100.00;98169.57;1694384;83;21460;-83
2022/08/13 00:16:46;;;;;;;18.37;13.98;;;;;;;14.51;100.00;98168.30;1701805;83;20989;-86
2022/08/13 00:19:12;;;;;;;18.45;14.15;;;;;;;14.48;100.00;98170.27;1728836;82;20886;-82
2022/08/13 00:21:38;;;;;;;21.60;15.50;;;;;;;14.47;100.00;98165.13;1693346;84;21428;-85
2022/08/13 00:24:05;;;;;;;17.77;15.13;;;;;;;14.48;100.00;98159.92;1693157;83;21558;-82
2022/08/13 00:26:33;;;;;;;18.62;14.43;;;;;;;14.50;100.00;98159.06;1728797;82;20959;-83
2022/08/13 00:29:00;;;;;;;19.52;14.47;;;;;;;14.52;100.00;98153.55;1693082;84;21471;-82
2022/08/13 00:31:26;;;;;;;20.00;14.07;;;;;;;14.49;100.00;98156.08;1705087;82;21105;-85
2022/08/13 00:33:52;;;;;;;20.62;14.33;;;;;;;14.47;100.00;98150.94;1721909;82;21010;-85
2022/08/13 00:36:21;;;;;;;20.32;15.05;;;;;;;14.45;100.00;98157.78;1722934;82;22043;-83
2022/08/13 00:38:46;;;;;;;21.50;14.87;;;;;;;14.40;100.00;98156.75;1723566;83;20990;-82
2022/08/13 00:41:37;;;;;;;21.15;14.45;;;;;;;14.36;100.00;98151.66;1723740;82;21565;-86
2022/08/13 00:43:43;;;;;;;19.75;14.53;;;;;;;14.33;100.00;98152.80;1724110;83;20995;-86
2022/08/13 00:46:09;;;;;;;19.52;15.03;;;;;;;14.27;100.00;98160.27;1689309;84;21605;-86
2022/08/13 00:48:46;;;;;;;18.25;14.28;;;;;;;14.24;100.00;98144.50;1691988;84;21153;-82
2022/08/13 00:51:13;;;;;;;20.55;14.25;;;;;;;14.32;100.00;98150.63;1693156;84;21456;-85
2022/08/13 00:53:39;;;;;;;19.67;14.47;;;;;;;14.34;100.00;98143.50;1728537;82;20987;-86
2022/08/13 00:56:08;;;;;;;20.02;14.60;;;;;;;14.40;100.00;98139.59;1693265;84;21027;-82
2022/08/13 00:58:34;;;;;;;19.82;14.83;;;;;;;14.43;100.00;98134.08;1728638;82;20987;-82
2022/08/13 01:01:01;;;;;;;18.27;14.35;;;;;;;14.48;100.00;98141.64;1725044;82;21925;-82
2022/08/13 01:03:31;;;;;;;19.48;14.70;;;;;;;14.54;100.00;98138.27;1723573;83;20990;-82
2022/08/13 01:06:01;;;;;;;17.42;13.38;;;;;;;14.58;100.00;98138.72;1720752;83;21463;-82
2022/08/13 01:08:31;;;;;;;18.00;14.53;;;;;;;14.60;100.00;98135.68;1690038;83;21088;-86
2022/08/13 01:11:09;;;;;;;17.12;13.50;;;;;;;14.61;100.00;98133.20;1726303;83;21450;-83
2022/08/13 01:13:38;;;;;;;22.00;15.45;;;;;;;14.67;100.00;98131.44;1698933;83;20975;-82
2022/08/13 01:16:06;;;;;;;19.60;15.75;;;;;;;14.74;100.00;98120.13;1731374;81;20972;-83
2022/08/13 01:18:36;;;;;;;;;;;;;;;14.79;100.00;98111.86;1721404;82;21086;-86
2022/08/13 01:21:10;;;;;;;21.57;14.80;;;;;;;14.84;100.00;98110.37;1725068;82;20404;-83
2022/08/13 01:23:37;;;;;;;28.15;17.92;;;;;;;14.86;100.00;98114.95;1728597;82;21010;-85
2022/08/13 01:26:03;;;;;;;21.85;16.87;;;;;;;14.85;100.00;98113.34;1723369;82;21892;-86
2022/08/13 01:28:29;;;;;;;20.82;17.05;;;;;;;14.90;100.00;98111.08;1722075;82;21006;-85
2022/08/13 01:31:01;;;;;;;28.75;21.90;;;;;;;14.97;100.00;98105.21;1714547;83;20997;-82
2022/08/13 01:33:27;;;;;;;31.33;21.23;;;;;;;15.02;100.00;98105.89;1723491;82;20978;-82
2022/08/13 01:35:53;;;;;;;25.37;19.40;;;;;;;15.08;100.00;98108.77;1724199;82;20990;-83
2022/08/13 01:38:24;;;;;;;24.98;19.85;;;;;;;15.13;100.00;98103.20;1703397;83;21148;-86
2022/08/13 01:40:52;;;;;;;24.45;19.60;;;;;;;15.18;100.00;98102.27;1724126;82;20946;-83
2022/08/13 01:43:18;;;;;;;30.00;20.43;;;;;;;15.20;100.00;98098.67;1723567;83;21018;-86
2022/08/13 01:45:44;;;;;;;22.95;17.98;;;;;;;15.23;100.00;98099.44;1724423;82;21019;-86
2022/08/13 01:50:54;;;;;;;22.30;17.73;;;;;;;15.25;100.00;98091.74;1726468;83;21246;-82
2022/08/13 01:53:20;;;;;;;22.07;17.30;;;;;;;15.23;100.00;98092.61;1693060;84;21684;-86
2022/08/13 01:55:53;;;;;;;23.47;17.82;;;;;;;15.22;100.00;98080.09;1693372;84;20940;-83
2022/08/13 01:58:22;;;;;;;25.97;17.87;;;;;;;15.23;100.00;98089.33;1692750;84;21486;-83
2022/08/13 02:00:55;;;;;;;24.02;16.32;;;;;;;15.24;100.00;98086.84;1728952;82;21360;-86
2022/08/13 02:03:21;;;;;;;21.52;17.57;;;;;;;15.26;100.00;98089.26;1707095;83;21091;-86
2022/08/13 02:05:48;;;;;;;19.95;16.85;;;;;;;15.28;100.00;98093.84;1690405;84;20989;-85
2022/08/13 02:08:20;;;;;;;21.20;16.82;;;;;;;15.31;100.00;98093.80;1693105;83;21031;-83
2022/08/13 02:10:47;;;;;;;23.87;17.95;;;;;;;15.29;100.00;98093.28;1728739;82;21074;-86
2022/08/13 02:13:17;;;;;;;22.70;17.67;;;;;;;15.27;100.00;98098.25;1720335;83;22255;-85
2022/08/13 02:15:45;;;;;;;22.35;16.90;;;;;;;15.29;100.00;98088.63;1721475;83;21977;-85
2022/08/13 02:18:14;;;;;;;20.97;18.05;;;;;;;15.34;100.00;98090.45;1688091;84;21057;-85
2022/08/13 02:20:40;;;;;;;22.02;16.57;;;;;;;15.37;100.00;98094.72;1683017;84;21003;-82
2022/08/13 02:23:09;;;;;;;20.00;16.23;;;;;;;15.40;100.00;98091.39;1672726;85;21240;-86
2022/08/13 02:25:36;;;;;;;21.97;16.65;;;;;;;15.41;100.00;98093.56;1669314;84;21498;-83
2022/08/13 02:28:04;;;;;;;20.95;16.20;;;;;;;15.45;100.00;98097.27;1728558;81;21070;-83
2022/08/13 02:30:30;;;;;;;21.55;16.45;;;;;;;15.45;100.00;98095.91;1693073;84;20987;-86
2022/08/13 02:32:59;;;;;;;21.23;17.00;;;;;;;15.49;100.00;98096.36;1693053;84;21074;-86
2022/08/13 02:35:26;;;;;;;20.30;17.40;;;;;;;15.47;100.00;98093.70;1728823;82;21026;-86
2022/08/13 02:37:52;;;;;;;22.73;16.45;;;;;;;15.45;100.00;98083.62;1693160;83;21022;-83
2022/08/13 02:43:02;;;;;;;20.68;16.87;;;;;;;15.50;100.00;98097.97;1692929;84;21063;-82
2022/08/13 02:45:28;;;;;;;22.42;17.12;;;;;;;15.48;100.00;98096.67;1726275;82;20982;-82
2022/08/13 02:47:54;;;;;;;22.70;18.00;;;;;;;15.45;100.00;98097.27;1722167;82;20975;-86
2022/08/13 02:50:21;;;;;;;21.40;18.92;;;;;;;15.46;100.00;98099.69;1722937;83;21025;-82
2022/08/13 02:52:51;;;;;;;23.40;17.23;;;;;;;15.45;100.00;98103.54;1704677;82;21725;-82
2022/08/13 02:55:16;;;;;;;23.07;18.15;;;;;;;15.47;100.00;98097.80;1738877;81;21261;-87
2022/08/13 02:57:43;;;;;;;24.18;18.87;;;;;;;15.47;100.00;98089.61;1728694;81;21010;-86
2022/08/13 03:00:10;;;;;;;22.90;17.98;;;;;;;15.46;100.00;98092.86;1693535;84;20971;-83
2022/08/13 03:02:42;;;;;;;22.93;17.35;;;;;;;15.48;100.00;98087.92;1708658;83;21056;-83
2022/08/13 03:05:09;;;;;;;25.88;19.12;;;;;;;15.48;100.00;98086.56;1669116;85;21026;-86
2022/08/13 03:07:37;;;;;;;29.23;17.90;;;;;;;15.49;100.00;98085.44;1723602;83;21057;-83
2022/08/13 03:10:04;;;;;;;21.40;18.07;;;;;;;15.49;100.00;98090.09;1724030;82;21029;-82
2022/08/13 03:12:31;;;;;;;23.52;17.80;;;;;;;15.50;100.00;98087.61;1723345;82;21433;-86
2022/08/13 03:14:57;;;;;;;28.70;18.98;;;;;;;15.50;100.00;98082.95;1723854;83;21013;-86
2022/08/13 03:17:23;;;;;;;24.57;17.02;;;;;;;15.49;100.00;98086.80;1723553;81;22015;-83
2022/08/13 03:19:49;;;;;;;27.93;17.70;;;;;;;15.47;100.00;98082.22;1675739;84;21022;-87
2022/08/13 03:22:15;;;;;;;27.40;18.77;;;;;;;15.45;100.00;98082.25;1673812;85;21474;-86
2022/08/13 03:24:41;;;;;;;28.90;18.98;;;;;;;15.45;100.00;98076.23;1672891;85;21006;-83
2022/08/13 03:27:08;;;;;;;25.02;17.23;;;;;;;15.46;100.00;98078.41;1677698;84;20997;-82
2022/08/13 03:29:35;;;;;;;27.37;19.12;;;;;;;15.47;100.00;98079.48;1722342;82;21039;-83
2022/08/13 03:32:02;;;;;;;32.63;20.88;;;;;;;15.50;100.00;98080.78;1728672;82;21383;-82
2022/08/13 03:34:28;;;;;;;34.50;20.60;;;;;;;15.45;100.00;98084.42;1701535;83;21006;-83
2022/08/13 03:36:54;;;;;;;38.90;21.15;;;;;;;15.48;100.00;98081.09;1722445;82;21404;-82
2022/08/13 03:39:20;;;;;;;30.00;19.92;;;;;;;15.44;100.00;98077.91;1721911;82;21046;-86
2022/08/13 03:41:46;;;;;;;31.20;21.57;;;;;;;15.45;100.00;98078.16;1716751;83;21288;-86
2022/08/13 03:44:12;;;;;;;28.50;21.02;;;;;;;15.44;100.00;98075.19;1721914;82;20867;-83
2022/08/13 03:46:38;;;;;;;27.80;20.77;;;;;;;15.45;100.00;98078.97;1725267;82;21007;-86
2022/08/13 03:49:04;;;;;;;37.95;21.73;;;;;;;15.51;100.00;98071.47;1693205;83;20987;-83
2022/08/13 03:51:30;;;;;;;41.33;23.60;;;;;;;15.53;100.00;98070.59;1680886;84;20979;-83
2022/08/13 03:53:57;;;;;;;37.25;22.73;;;;;;;15.48;100.00;98073.47;1699506;83;21850;-86
2022/08/13 03:56:23;;;;;;;41.35;24.55;;;;;;;15.46;100.00;98073.75;1693080;84;21027;-86
2022/08/13 03:58:50;;;;;;;36.95;22.77;;;;;;;15.48;100.00;98074.27;1728595;81;21439;-83
2022/08/13 04:01:17;;;;;;;33.13;21.77;;;;;;;15.49;100.00;98068.25;1681944;83;21048;-83
2022/08/13 04:03:43;;;;;;;37.88;24.23;;;;;;;15.44;100.00;98066.44;1711007;82;21000;-83
2022/08/13 04:06:16;;;;;;;30.92;21.55;;;;;;;15.48;100.00;98067.44;1667615;85;21022;-86
2022/08/13 04:08:41;;;;;;;37.35;23.30;;;;;;;15.49;100.00;98068.25;1728343;82;21023;-86
2022/08/13 04:11:10;;;;;;;39.83;23.92;;;;;;;15.48;100.00;98070.17;1693039;84;21492;-82
2022/08/13 04:13:36;;;;;;;39.75;24.43;;;;;;;15.55;100.00;98072.45;1693249;84;21022;-86
2022/08/13 04:16:16;;;;;;;35.20;22.52;;;;;;;15.55;100.00;98075.73;1728691;82;21293;-83
2022/08/13 04:18:43;;;;;;;35.15;23.25;;;;;;;15.58;100.00;98076.50;1682102;83;21277;-83
2022/08/13 04:21:11;;;;;;;35.65;23.30;;;;;;;15.53;100.00;98080.95;1690944;84;21429;-83
2022/08/13 04:23:43;;;;;;;34.45;22.62;;;;;;;15.58;100.00;98073.77;1728655;83;21030;-83
2022/08/13 04:26:06;;;;;;;36.80;22.22;;;;;;;15.59;100.00;98064.45;1691786;84;21034;-86
2022/08/13 04:28:32;;;;;;;35.30;21.23;;;;;;;15.61;100.00;98069.07;1692698;83;21074;-86
2022/08/13 04:30:58;;;;;;;38.38;23.25;;;;;;;15.61;100.00;98063.61;1673810;84;21168;-83
2022/08/13 04:33:25;;;;;;;36.20;21.30;;;;;;;15.65;100.00;98059.16;1668877;85;21097;-86
2022/08/13 04:35:51;;;;;;;38.53;24.10;;;;;;;15.66;100.00;98058.84;1674000;84;21030;-87
2022/08/13 04:38:17;;;;;;;59.53;30.80;;;;;;;15.70;100.00;98056.28;1671195;85;20915;-83
2022/08/13 04:40:44;;;;;;;52.30;29.37;;;;;;;15.80;100.00;98045.89;1705776;83;21036;-83
2022/08/13 04:43:10;;;;;;;46.58;27.45;;;;;;;15.86;100.00;98045.20;1721991;82;21192;-86
2022/08/13 04:45:38;;;;;;;47.38;27.48;;;;;;;15.93;100.00;98055.70;1726721;82;21027;-86
2022/08/13 04:48:09;;;;;;;46.83;28.40;;;;;;;16.01;100.00;98060.40;1693250;84;20980;-83
2022/08/13 04:50:36;;;;;;;44.33;27.35;;;;;;;16.10;100.00;98061.81;1708469;82;21034;-86
2022/08/13 04:53:08;;;;;;;51.92;29.25;;;;;;;16.13;100.00;98057.07;1728256;82;20995;-82
2022/08/13 04:55:34;;;;;;;38.55;25.20;;;;;;;16.20;100.00;98056.86;1724349;83;21158;-86
2022/08/13 04:58:00;;;;;;;47.45;28.00;;;;;;;16.30;100.00;98062.61;1728562;81;21102;-82
2022/08/13 05:00:32;;;;;;;40.85;24.57;;;;;;;16.31;100.00;98065.02;1693409;84;20872;-86
2022/08/13 05:02:55;;;;;;;42.20;26.42;;;;;;;16.24;100.00;98070.16;1711095;83;21457;-83
2022/08/13 05:05:24;;;;;;;40.65;24.70;;;;;;;16.27;100.00;98069.52;1712236;83;20961;-82
2022/08/13 05:07:52;;;;;;;47.93;27.85;;;;;;;16.25;100.00;98067.67;1723777;81;21067;-85
2022/08/13 05:10:20;;;;;;;46.45;27.58;;;;;;;16.25;100.00;98071.77;1724000;82;22048;-86
2022/08/13 05:12:47;;;;;;;39.60;24.95;;;;;;;16.28;100.00;98070.33;1723707;82;21014;-83
2022/08/13 05:15:13;;;;;;;54.38;34.10;;;;;;;16.34;100.00;98077.28;1703156;83;21101;-87
2022/08/13 05:17:40;;;;;;;42.55;25.90;;;;;;;16.38;100.00;98063.20;1722107;82;20999;-87
2022/08/13 05:20:13;;;;;;;44.10;27.02;;;;;;;16.45;100.00;98060.83;1725595;82;21353;-82
2022/08/13 05:22:36;;;;;;;42.48;26.23;;;;;;;16.55;100.00;98063.83;1721484;83;20979;-83
2022/08/13 05:25:01;;;;;;;44.35;26.68;;;;;;;16.60;100.00;98063.69;1722043;82;20970;-86
2022/08/13 05:27:27;;;;;;;42.10;26.17;;;;;;;16.61;100.00;98072.14;1722353;82;21235;-83
2022/08/13 05:29:57;;;;;;;43.13;25.23;;;;;;;16.66;100.00;98067.88;1722092;83;20883;-83
2022/08/13 05:32:21;;;;;;;46.88;26.17;;;;;;;16.74;100.00;98066.31;1722131;83;21498;-83
2022/08/13 05:34:49;;;;;;;40.45;24.77;;;;;;;16.79;100.00;98065.61;1709328;82;20881;-82
2022/08/13 05:37:16;;;;;;;43.68;25.05;;;;;;;16.84;100.00;98070.95;1673180;84;21115;-83
2022/08/13 05:39:44;;;;;;;46.65;27.02;;;;;;;16.86;100.00;98070.63;1691839;83;21041;-83
2022/08/13 05:42:10;;;;;;;36.10;25.05;;;;;;;16.89;100.00;98068.60;1723738;83;20979;-86
2022/08/13 05:44:37;;;;;;;36.23;23.62;;;;;;;16.97;100.00;98068.38;1723954;82;49368;-83
2022/08/13 05:47:05;;;;;;;44.42;25.77;;;;;;;17.04;100.00;98059.94;1722550;82;21137;-87
2022/08/13 05:49:31;;;;;;;34.83;22.27;;;;;;;17.06;100.00;98049.46;1722687;83;21627;-86
2022/08/13 05:51:57;;;;;;;44.90;26.48;;;;;;;17.16;100.00;98053.81;1680031;85;20970;-87
2022/08/13 05:54:23;;;;;;;36.53;22.70;;;;;;;17.24;100.00;98052.20;1703656;83;21030;-85
2022/08/13 05:56:49;;;;;;;36.98;23.77;;;;;;;17.38;100.00;98052.30;1725599;82;21138;-82
2022/08/13 06:04:44;;;;;;;27.75;19.10;;;;;;;17.64;100.00;98056.38;1731034;81;21449;-82
2022/08/13 06:07:11;;;;;;;29.95;20.92;;;;;;;17.65;100.00;98057.17;1724029;83;20918;-82
2022/08/13 06:09:37;;;;;;;32.03;21.25;;;;;;;17.60;100.00;98058.13;1723768;82;21081;-82
2022/08/13 06:12:04;;;;;;;27.15;19.30;;;;;;;17.59;100.00;98055.16;1729217;81;21114;-87
2022/08/13 06:14:33;;;;;;;30.55;20.50;;;;;;;17.58;100.00;98059.03;1747214;81;21002;-86
2022/08/13 06:16:58;;;;;;;31.48;19.98;;;;;;;17.57;100.00;98052.52;1722803;83;20971;-86
2022/08/13 06:19:25;;;;;;;30.20;21.60;;;;;;;17.58;100.00;98059.03;1723051;82;21021;-86
2022/08/13 06:21:51;;;;;;;31.27;20.15;;;;;;;17.51;100.00;98049.13;1728497;82;21484;-87
2022/08/13 06:24:17;;;;;;;33.42;20.75;;;;;;;17.54;100.00;98051.23;1693582;84;21575;-86
2022/08/13 06:26:43;;;;;;;34.15;20.75;;;;;;;17.49;100.00;98052.19;1693465;83;21645;-86
2022/08/13 06:29:09;;;;;;;29.87;21.48;;;;;;;17.53;100.00;98041.98;1693610;83;21502;-87
2022/08/13 06:31:38;;;;;;;32.20;20.90;;;;;;;17.57;100.00;98045.09;1727143;82;21656;-83
2022/08/13 06:34:08;;;;;;;35.50;21.07;;;;;;;17.56;100.00;98051.70;1728168;81;21099;-85
2022/08/13 06:36:33;;;;;;;29.70;20.62;;;;;;;17.63;100.00;98046.55;1701513;83;21001;-82
2022/08/13 06:39:04;;;;;;;32.83;21.02;;;;;;;17.69;100.00;98054.84;1722167;82;21411;-82
2022/08/13 06:41:31;;;;;;;38.78;23.20;;;;;;;17.74;100.00;98049.20;1722064;82;21034;-86
2022/08/13 06:43:57;;;;;;;34.67;22.65;;;;;;;17.79;100.00;98052.36;1722415;82;21061;-83
2022/08/13 06:46:27;;;;;;;29.77;20.90;;;;;;;17.83;100.00;98048.39;1688574;83;21013;-85
2022/08/13 06:48:58;;;;;;;29.82;19.45;;;;;;;17.87;100.00;98050.16;1680746;84;21081;-86
2022/08/13 06:51:24;;;;;;;27.30;20.57;;;;;;;17.81;100.00;98053.39;1722900;83;21524;-84
2022/08/13 06:53:49;;;;;;;32.10;20.62;;;;;;;17.80;100.00;98045.73;1728266;82;21075;-86
2022/08/13 06:56:21;;;;;;;30.30;20.32;;;;;;;17.79;100.00;98046.88;1723450;83;20868;-83
2022/08/13 06:58:50;;;;;;;29.85;20.57;;;;;;;17.78;100.00;98047.20;1728738;81;21911;-83
2022/08/13 07:01:19;;;;;;;28.27;18.73;;;;;;;17.73;100.00;98047.60;1696235;83;21015;-87
2022/08/13 07:03:45;;;;;;;29.27;19.00;;;;;;;17.76;100.00;98046.94;1710382;81;21020;-86
2022/08/13 07:06:18;;;;;;;30.12;20.68;;;;;;;17.78;100.00;98048.01;1716465;83;20994;-82
2022/08/13 07:08:44;;;;;;;34.15;20.92;;;;;;;17.67;100.00;98048.86;1697256;83;21023;-83
2022/08/13 07:11:22;;;;;;;34.92;20.32;;;;;;;17.69;100.00;98043.08;1694632;83;21680;-83
2022/08/13 07:13:53;;;;;;;30.43;20.90;;;;;;;17.73;100.00;98042.13;1668745;85;21052;-86
2022/08/13 07:16:22;;;;;;;31.93;21.75;;;;;;;17.82;100.00;98039.92;1663566;85;21072;-87
2022/08/13 07:18:50;;;;;;;34.55;21.95;;;;;;;17.86;100.00;98031.28;1723163;82;21446;-85
2022/08/13 07:21:19;;;;;;;34.58;21.70;;;;;;;17.86;100.00;98035.39;1715253;82;21529;-83
2022/08/13 07:23:46;;;;;;;32.03;21.37;;;;;;;17.89;100.00;98031.45;1722635;82;21562;-86
2022/08/13 07:26:12;;;;;;;38.78;21.95;;;;;;;17.88;100.00;98036.69;1722690;83;21054;-86
2022/08/13 07:28:38;;;;;;;31.15;21.45;;;;;;;17.96;100.00;98038.61;1722484;83;21009;-86
2022/08/13 07:31:06;;;;;;;37.05;22.42;;;;;;;17.98;100.00;98032.22;1723900;82;20890;-83
2022/08/13 07:33:36;;;;;;;32.80;22.82;;;;;;;18.01;100.00;98030.19;1724068;82;21018;-83
2022/08/13 07:36:08;;;;;;;34.92;21.45;;;;;;;18.00;100.00;98038.17;1724163;83;20963;-87
2022/08/13 07:38:34;;;;;;;38.60;23.07;;;;;;;18.03;100.00;98033.42;1719123;83;21054;-83
2022/08/13 07:41:02;;;;;;;34.53;22.73;;;;;;;18.10;100.00;98033.46;1723016;82;21053;-86
2022/08/13 07:43:29;;;;;;;33.42;20.70;;;;;;;18.20;100.00;98039.41;1722213;83;21002;-83
2022/08/13 07:46:15;;;;;;;33.48;21.33;;;;;;;18.32;100.00;98031.28;1722312;82;20994;-82
2022/08/13 07:48:42;;;;;;;29.15;19.32;;;;;;;18.46;100.00;98031.62;1722410;83;21011;-83
2022/08/13 07:51:18;;;;;;;31.30;20.40;;;;;;;18.60;100.00;98037.09;1726282;82;21019;-83
2022/08/13 07:53:40;;;;;;;34.25;20.48;;;;;;;18.70;100.00;98031.02;1724120;82;20971;-86
2022/08/13 07:56:06;;;;;;;32.23;21.97;;;;;;;18.80;100.00;98028.71;1725340;82;20963;-85
2022/08/13 07:58:34;;;;;;;37.78;21.93;;;;;;;18.84;100.00;98033.76;1688183;84;21033;-86
2022/08/13 08:01:04;;;;;;;33.25;22.13;;;;;;;18.85;99.89;98032.62;1686276;83;21275;-83
2022/08/13 08:03:38;;;;;;;34.38;22.02;;;;;;;18.83;99.80;98035.47;1703615;83;21050;-83
2022/08/13 08:06:03;;;;;;;28.23;20.00;;;;;;;18.72;100.00;98038.38;1723777;83;21033;-82
2022/08/13 08:08:29;;;;;;;36.23;20.92;;;;;;;18.61;100.00;98030.47;1661072;83;21281;-82
2022/08/13 08:10:55;;;;;;;35.65;23.15;;;;;;;18.54;100.00;98034.33;1724748;81;20983;-83
2022/08/13 08:13:21;;;;;;;34.38;23.20;;;;;;;18.54;100.00;98036.23;1721312;82;20943;-86
2022/08/13 08:15:47;;;;;;;42.62;31.77;;;;;;;18.55;100.00;98026.33;1722430;82;20963;-86
2022/08/13 08:18:13;;;;;;;31.48;23.47;;;;;;;18.56;100.00;98032.63;1699113;83;20914;-86
2022/08/13 08:20:42;;;;;;;31.82;24.45;;;;;;;18.57;100.00;98027.36;1662508;85;21424;-82
2022/08/13 08:23:08;;;;;;;31.30;22.33;;;;;;;18.64;100.00;98026.84;1670809;85;21074;-86
2022/08/13 08:25:34;;;;;;;31.77;21.12;;;;;;;18.67;100.00;98026.20;1686510;83;21500;-86
2022/08/13 08:28:00;;;;;;;29.92;21.07;;;;;;;18.69;100.00;98025.30;1669378;85;21679;-82
2022/08/13 08:30:26;;;;;;;29.50;20.32;;;;;;;18.75;100.00;98022.61;1722640;82;21408;-87
2022/08/13 08:32:56;;;;;;;30.90;20.72;;;;;;;18.81;100.00;98018.53;1726059;82;21019;-87
2022/08/13 08:35:23;;;;;;;30.08;20.37;;;;;;;18.88;100.00;98016.88;1693800;84;20995;-82
2022/08/13 08:43:32;;;;;;;24.80;18.20;;;;;;;18.90;100.00;98012.98;1704847;83;21489;-86
2022/08/13 08:45:58;;;;;;;25.55;17.73;;;;;;;18.86;100.00;98010.89;1721813;82;21070;-86
2022/08/13 08:48:30;;;;;;;25.57;18.75;;;;;;;18.86;100.00;98009.52;1730354;81;20885;-82
2022/08/13 08:50:51;;;;;;;25.03;18.57;;;;;;;18.85;100.00;98011.23;1737771;81;22015;-82
2022/08/13 08:53:20;;;;;;;23.40;15.88;;;;;;;18.81;100.00;98006.98;1728602;82;22442;-86
2022/08/13 08:55:48;;;;;;;25.05;16.93;;;;;;;18.86;100.00;98002.66;1726467;82;21020;-83
2022/08/13 08:58:14;;;;;;;24.07;18.32;;;;;;;18.88;100.00;98008.63;1685870;83;21062;-82
2022/08/13 09:00:40;;;;;;;22.22;16.97;;;;;;;18.95;100.00;98011.39;1722283;83;21030;-83
2022/08/13 09:03:08;;;;;;;23.35;16.87;;;;;;;18.95;100.00;98007.28;1661776;83;21228;-86
2022/08/13 09:05:34;;;;;;;20.92;15.32;;;;;;;18.86;100.00;98011.45;1672138;85;21026;-86
2022/08/13 09:08:02;;;;;;;22.45;14.43;;;;;;;18.81;100.00;98015.79;1728692;82;21086;-86
2022/08/13 09:10:32;;;;;;;21.68;13.75;;;;;;;18.86;100.00;98019.13;1699069;83;21057;-86
2022/08/13 09:12:56;;;;;;;19.37;14.25;;;;;;;18.85;100.00;98007.91;1737503;81;21031;-83
2022/08/13 09:15:23;;;;;;;23.07;15.48;;;;;;;18.92;100.00;98010.70;1728489;83;21171;-87
2022/08/13 09:17:50;;;;;;;19.55;14.05;;;;;;;18.97;100.00;98005.83;1698404;83;20998;-87
2022/08/13 09:20:22;;;;;;;21.15;14.53;;;;;;;19.00;100.00;98002.97;1722309;82;21076;-83
2022/08/13 09:23:03;;;;;;;20.37;14.55;;;;;;;18.94;100.00;98008.42;1684676;84;21024;-83
2022/08/13 09:25:28;;;;;;;17.75;12.53;;;;;;;18.94;100.00;98005.67;1703029;82;21447;-86
2022/08/13 09:27:55;;;;;;;21.60;13.65;;;;;;;19.00;100.00;98005.14;1724089;83;21164;-83
2022/08/13 09:30:21;;;;;;;19.48;14.45;;;;;;;19.05;100.00;98001.38;1714242;82;21077;-87
2022/08/13 09:32:48;;;;;;;18.50;12.30;;;;;;;19.09;100.00;98001.76;1729356;82;20954;-87
2022/08/13 09:35:14;;;;;;;15.50;11.38;;;;;;;19.10;100.00;97997.88;1705953;83;21071;-87
2022/08/13 09:37:40;;;;;;;16.60;10.85;;;;;;;19.07;100.00;98002.67;1722459;83;20959;-86
2022/08/13 09:40:08;;;;;;;19.73;10.03;;;;;;;19.06;100.00;97995.58;1703042;82;21671;-87
2022/08/13 09:42:46;;;;;;;11.48;9.08;;;;;;;19.05;100.00;97988.45;1726283;82;21058;-83
2022/08/13 09:45:12;;;;;;;10.53;8.48;;;;;;;19.05;100.00;97994.52;1721098;83;20982;-87
2022/08/13 09:47:40;;;;;;;9.35;7.50;;;;;;;18.99;100.00;97989.02;1722596;83;20902;-83
2022/08/13 09:50:08;;;;;;;9.98;6.60;;;;;;;18.89;100.00;97984.73;1721067;83;21054;-87
2022/08/13 09:52:34;;;;;;;7.47;6.15;;;;;;;18.84;100.00;97982.97;1720280;82;21091;-84
2022/08/13 09:55:00;;;;;;;10.78;7.05;;;;;;;18.88;100.00;97984.47;1723122;82;21061;-87
2022/08/13 09:57:28;;;;;;;9.15;6.67;;;;;;;18.84;100.00;97981.60;1723032;82;21544;-83
2022/08/13 09:59:54;;;;;;;8.73;6.50;;;;;;;18.83;100.00;97979.20;1720252;82;21026;-83
2022/08/13 10:02:21;;;;;;;6.85;5.58;;;;;;;18.86;100.00;97982.63;1721345;81;20859;-83
2022/08/13 10:04:52;;;;;;;7.30;6.10;;;;;;;18.88;100.00;97980.35;1734394;81;21328;-83
2022/08/13 10:07:15;;;;;;;7.00;5.97;;;;;;;18.91;100.00;97985.19;1723293;82;21052;-82
2022/08/13 10:09:41;;;;;;;8.38;6.62;;;;;;;18.88;100.00;97985.30;1728173;82;20973;-87
2022/08/13 10:12:09;;;;;;;6.60;5.67;;;;;;;18.92;100.00;97976.39;1718725;82;20864;-87
2022/08/13 10:14:35;;;;;;;6.90;5.95;;;;;;;19.06;100.00;97979.67;1684209;83;21479;-87
2022/08/13 10:17:03;;;;;;;9.33;6.45;;;;;;;19.16;100.00;97979.25;1665695;85;21539;-83
2022/08/13 10:19:29;;;;;;;7.13;6.13;;;;;;;19.26;100.00;97975.28;1652344;85;21030;-87
2022/08/13 10:21:55;;;;;;;11.10;5.85;;;;;;;19.34;100.00;97974.41;1657135;85;20998;-83
2022/08/13 10:24:21;;;;;;;8.48;5.97;;;;;;;19.37;100.00;97969.59;1670796;84;21098;-86
2022/08/13 10:26:47;;;;;;;5.75;4.92;;;;;;;19.45;100.00;97961.27;1671387;84;20989;-83
2022/08/13 10:29:13;;;;;;;6.62;4.92;;;;;;;19.50;100.00;97963.58;1649207;86;21192;-82
2022/08/13 10:31:39;;;;;;;6.30;5.70;;;;;;;19.50;100.00;97958.89;1670110;85;20962;-82
2022/08/13 10:34:05;;;;;;;5.53;4.80;;;;;;;19.49;100.00;97958.66;1671166;85;20903;-86
2022/08/13 10:36:33;;;;;;;5.97;4.70;;;;;;;19.49;100.00;97965.53;1679671;84;21017;-87
2022/08/13 10:38:59;;;;;;;5.83;5.00;;;;;;;19.50;100.00;97953.97;1723810;83;21033;-86
2022/08/13 10:41:25;;;;;;;5.28;4.70;;;;;;;19.51;100.00;97956.94;1723769;83;21122;-83
2022/08/13 10:43:54;;;;;;;5.83;4.62;;;;;;;19.54;100.00;97953.50;1723380;82;20966;-86
2022/08/13 10:46:20;;;;;;;4.90;4.37;;;;;;;19.59;100.00;97954.70;1731260;82;21044;-87
2022/08/13 10:48:49;;;;;;;6.00;5.17;;;;;;;19.56;100.00;97949.30;1722295;82;21427;-82
2022/08/13 10:51:14;;;;;;;7.47;5.30;;;;;;;19.63;100.00;97952.86;1713110;82;21019;-83
2022/08/13 10:53:55;;;;;;;14.25;5.90;;;;;;;19.67;100.00;97944.19;1724644;82;21013;-86
2022/08/13 10:56:21;;;;;;;6.75;4.70;;;;;;;19.77;100.00;97949.23;1726714;81;21025;-83
2022/08/13 10:58:47;;;;;;;5.20;4.67;;;;;;;19.81;100.00;97948.77;1672999;83;20976;-87
2022/08/13 11:01:14;;;;;;;7.25;5.17;;;;;;;19.77;100.00;97948.44;1720558;82;21015;-86
2022/08/13 11:03:44;;;;;;;7.15;6.45;;;;;;;19.71;100.00;97945.89;1725607;81;21072;-87
2022/08/13 11:06:07;;;;;;;7.40;6.15;;;;;;;19.75;100.00;97940.53;1729202;82;21377;-87
2022/08/13 11:08:37;;;;;;;8.73;7.67;;;;;;;19.85;100.00;97935.96;1693058;84;20952;-83
2022/08/13 11:11:02;;;;;;;7.08;6.33;;;;;;;19.97;100.00;97941.45;1678380;84;21080;-87
2022/08/13 11:13:28;;;;;;;7.35;6.40;;;;;;;20.11;100.00;97937.58;1653077;85;21596;-82
2022/08/13 11:15:54;;;;;;;8.15;7.33;;;;;;;20.21;100.00;97937.91;1657408;85;20985;-83
2022/08/13 11:18:20;;;;;;;8.43;7.17;;;;;;;20.19;100.00;97933.33;1642969;86;21268;-84
2022/08/13 11:21:06;;;;;;;8.90;7.05;;;;;;;20.20;100.00;97931.38;1662817;85;20957;-84
2022/08/13 11:23:34;;;;;;;8.10;6.60;;;;;;;20.21;100.00;97925.53;1661433;85;21058;-86
2022/08/13 11:26:00;;;;;;;9.55;7.97;;;;;;;20.31;100.00;97921.51;1672321;84;21514;-83
2022/08/13 11:28:26;;;;;;;8.60;7.15;;;;;;;20.35;100.00;97925.77;1673256;85;21585;-87
2022/08/13 11:30:55;;;;;;;8.83;7.00;;;;;;;20.43;100.00;97927.05;1659955;85;21186;-83
2022/08/13 11:33:23;;;;;;;8.25;7.03;;;;;;;20.53;100.00;97923.81;1671803;85;21082;-83
2022/08/13 11:35:49;;;;;;;9.58;6.85;;;;;;;20.65;100.00;97924.92;1722155;82;21074;-83